JBU2469 KLGA-KCHS
Flight info
| Callsign | JBU2469 |
|---|---|
| Flight time | 1h 33m |
| Altitude | 38000 |
| Route | WHITE Q409 CRPLR DFENC Q109 JOHAR AMYLU AMYLU3 |
| Aircraft | A320/M-SDE3FGHIRWY/LB1 |
Departure
| Time | 2026-05-06 01:58 |
|---|---|
| Airport | LaGuardia Airport (KLGA) |
Arrival
| Time | 2026-05-06 03:31 |
|---|---|
| Airport | Charleston International Airport (KCHS) |
| Time | Latitude | Longitude | Altitude | Speed | Heading |
|---|---|---|---|---|---|
| 2026-05-06 01:33 | 40.77327 | -73.88429 | 20 ft | 0 kts | 25° |
| 2026-05-06 01:45 | 40.77314 | -73.88436 | 18 ft | 4 kts | 1° |
| 2026-05-06 01:45 | 40.77294 | -73.88425 | 19 ft | 4 kts | 304° |
| 2026-05-06 01:45 | 40.77284 | -73.88394 | 19 ft | 4 kts | 267° |
| 2026-05-06 01:46 | 40.77285 | -73.88388 | 22 ft | 0 kts | 262° |
| 2026-05-06 01:51 | 40.77286 | -73.88396 | 19 ft | 2 kts | 291° |
| 2026-05-06 01:51 | 40.77295 | -73.88383 | 22 ft | 4 kts | 67° |
| 2026-05-06 01:51 | 40.77319 | -73.88308 | 21 ft | 12 kts | 62° |
| 2026-05-06 01:52 | 40.77333 | -73.88283 | 21 ft | 0 kts | 52° |
| 2026-05-06 01:52 | 40.77347 | -73.88232 | 20 ft | 11 kts | 69° |
| 2026-05-06 01:52 | 40.77406 | -73.88159 | 20 ft | 13 kts | 31° |
| 2026-05-06 01:52 | 40.77491 | -73.88090 | 20 ft | 15 kts | 32° |
| 2026-05-06 01:53 | 40.77585 | -73.88012 | 21 ft | 16 kts | 33° |
| 2026-05-06 01:53 | 40.77687 | -73.87923 | 22 ft | 19 kts | 34° |
| 2026-05-06 01:53 | 40.77795 | -73.87834 | 20 ft | 19 kts | 31° |
| 2026-05-06 01:53 | 40.77829 | -73.87807 | 20 ft | 2 kts | 31° |
| 2026-05-06 01:54 | 40.77854 | -73.87787 | 20 ft | 6 kts | 32° |
| 2026-05-06 01:54 | 40.77901 | -73.87747 | 20 ft | 10 kts | 34° |
| 2026-05-06 01:54 | 40.77928 | -73.87722 | 18 ft | 2 kts | 35° |
| 2026-05-06 01:54 | 40.77939 | -73.87712 | 18 ft | 0 kts | 35° |
| 2026-05-06 01:55 | 40.77945 | -73.87706 | 18 ft | 3 kts | 34° |
| 2026-05-06 01:55 | 40.77976 | -73.87682 | 16 ft | 8 kts | 27° |
| 2026-05-06 01:55 | 40.78036 | -73.87691 | 15 ft | 10 kts | 321° |
| 2026-05-06 01:55 | 40.78078 | -73.87768 | 18 ft | 10 kts | 301° |
| 2026-05-06 01:56 | 40.78090 | -73.87794 | 3 ft | 0 kts | 301° |
| 2026-05-06 01:56 | 40.78100 | -73.87816 | 21 ft | 6 kts | 302° |
| 2026-05-06 01:56 | 40.78137 | -73.87855 | 24 ft | 8 kts | 336° |
| 2026-05-06 01:56 | 40.78204 | -73.87846 | 20 ft | 11 kts | 51° |
| 2026-05-06 01:57 | 40.78193 | -73.87777 | 21 ft | 7 kts | 118° |
| 2026-05-06 01:57 | 40.78021 | -73.87418 | 16 ft | 82 kts | 122° |
| 2026-05-06 01:57 | 40.77622 | -73.86584 | 14 ft | 132 kts | 122° |
| 2026-05-06 01:57 | 40.77080 | -73.85434 | 241 ft | 154 kts | 125° |
| 2026-05-06 01:58 | 40.76557 | -73.84278 | 670 ft | 139 kts | 130° |
| 2026-05-06 01:58 | 40.76024 | -73.83143 | 1115 ft | 150 kts | 134° |
| 2026-05-06 01:58 | 40.75495 | -73.81897 | 1650 ft | 164 kts | 133° |
| 2026-05-06 01:58 | 40.74898 | -73.80458 | 2107 ft | 195 kts | 135° |
| 2026-05-06 01:59 | 40.74098 | -73.78845 | 2741 ft | 223 kts | 136° |
| 2026-05-06 01:59 | 40.73099 | -73.77124 | 3301 ft | 251 kts | 144° |
| 2026-05-06 01:59 | 40.71598 | -73.76082 | 3729 ft | 244 kts | 179° |
| 2026-05-06 01:59 | 40.69943 | -73.76215 | 4545 ft | 238 kts | 204° |
| 2026-05-06 02:00 | 40.68453 | -73.77177 | 5390 ft | 240 kts | 213° |
| 2026-05-06 02:00 | 40.66969 | -73.78250 | 6279 ft | 245 kts | 213° |
| 2026-05-06 02:00 | 40.65458 | -73.79340 | 7107 ft | 250 kts | 212° |
| 2026-05-06 02:00 | 40.63912 | -73.80452 | 7919 ft | 256 kts | 212° |
| 2026-05-06 02:01 | 40.62331 | -73.81583 | 8730 ft | 262 kts | 212° |
| 2026-05-06 02:01 | 40.60708 | -73.82739 | 9500 ft | 268 kts | 211° |
| 2026-05-06 02:01 | 40.59069 | -73.83907 | 10222 ft | 276 kts | 211° |
| 2026-05-06 02:01 | 40.57310 | -73.85166 | 10496 ft | 299 kts | 211° |
| 2026-05-06 02:02 | 40.55438 | -73.86503 | 10979 ft | 311 kts | 211° |
| 2026-05-06 02:02 | 40.53514 | -73.87868 | 11647 ft | 316 kts | 210° |
| 2026-05-06 02:02 | 40.51571 | -73.89244 | 12418 ft | 319 kts | 210° |
| 2026-05-06 02:02 | 40.49615 | -73.90633 | 13159 ft | 322 kts | 210° |
| 2026-05-06 02:03 | 40.47632 | -73.92043 | 13881 ft | 325 kts | 210° |
| 2026-05-06 02:03 | 40.45637 | -73.93460 | 14513 ft | 327 kts | 210° |
| 2026-05-06 02:03 | 40.43623 | -73.94889 | 15155 ft | 330 kts | 211° |
| 2026-05-06 02:03 | 40.41597 | -73.96323 | 15786 ft | 332 kts | 211° |
| 2026-05-06 02:04 | 40.39556 | -73.97766 | 16436 ft | 334 kts | 211° |
| 2026-05-06 02:04 | 40.37514 | -73.99211 | 17080 ft | 337 kts | 211° |
| 2026-05-06 02:04 | 40.35430 | -74.00686 | 17732 ft | 339 kts | 211° |
| 2026-05-06 02:04 | 40.33349 | -74.02157 | 18383 ft | 341 kts | 211° |
| 2026-05-06 02:05 | 40.31284 | -74.03616 | 18968 ft | 342 kts | 211° |
| 2026-05-06 02:05 | 40.29181 | -74.05102 | 19541 ft | 345 kts | 211° |
| 2026-05-06 02:05 | 40.27061 | -74.06597 | 20159 ft | 347 kts | 211° |
| 2026-05-06 02:05 | 40.24933 | -74.08097 | 20730 ft | 349 kts | 211° |
| 2026-05-06 02:06 | 40.22797 | -74.09600 | 21247 ft | 351 kts | 211° |
| 2026-05-06 02:06 | 40.20626 | -74.11127 | 21745 ft | 355 kts | 211° |
| 2026-05-06 02:06 | 40.18443 | -74.12664 | 22253 ft | 357 kts | 211° |
| 2026-05-06 02:06 | 40.16248 | -74.14207 | 22771 ft | 360 kts | 212° |
| 2026-05-06 02:07 | 40.14039 | -74.15762 | 23294 ft | 362 kts | 212° |
| 2026-05-06 02:07 | 40.11812 | -74.17324 | 23757 ft | 365 kts | 212° |
| 2026-05-06 02:07 | 40.09562 | -74.18900 | 24151 ft | 367 kts | 212° |
| 2026-05-06 02:07 | 40.07299 | -74.20486 | 24533 ft | 371 kts | 212° |
| 2026-05-06 02:08 | 40.05014 | -74.22087 | 24898 ft | 374 kts | 212° |
| 2026-05-06 02:08 | 40.02710 | -74.23702 | 25243 ft | 378 kts | 212° |
| 2026-05-06 02:08 | 40.00414 | -74.25403 | 25598 ft | 380 kts | 217° |
| 2026-05-06 02:08 | 39.98268 | -74.27422 | 25981 ft | 382 kts | 219° |
| 2026-05-06 02:09 | 39.96115 | -74.29481 | 26356 ft | 385 kts | 219° |
| 2026-05-06 02:09 | 39.93975 | -74.31525 | 26723 ft | 388 kts | 219° |
| 2026-05-06 02:09 | 39.91784 | -74.33616 | 27087 ft | 392 kts | 219° |
| 2026-05-06 02:09 | 39.89580 | -74.35715 | 27445 ft | 395 kts | 219° |
| 2026-05-06 02:10 | 39.87358 | -74.37826 | 27863 ft | 396 kts | 219° |
| 2026-05-06 02:10 | 39.85119 | -74.39947 | 28260 ft | 398 kts | 219° |
| 2026-05-06 02:10 | 39.82870 | -74.42074 | 28572 ft | 402 kts | 219° |
| 2026-05-06 02:10 | 39.80749 | -74.44443 | 28918 ft | 402 kts | 228° |
| 2026-05-06 02:11 | 39.78787 | -74.47052 | 29275 ft | 405 kts | 228° |
| 2026-05-06 02:11 | 39.76815 | -74.49678 | 29642 ft | 408 kts | 228° |
| 2026-05-06 02:11 | 39.74831 | -74.52322 | 29992 ft | 411 kts | 228° |
| 2026-05-06 02:11 | 39.72823 | -74.54990 | 30309 ft | 413 kts | 228° |
| 2026-05-06 02:12 | 39.70807 | -74.57662 | 30625 ft | 416 kts | 228° |
| 2026-05-06 02:12 | 39.68779 | -74.60345 | 30956 ft | 418 kts | 229° |
| 2026-05-06 02:12 | 39.66732 | -74.63050 | 31268 ft | 420 kts | 229° |
| 2026-05-06 02:12 | 39.64684 | -74.65751 | 31714 ft | 419 kts | 229° |
| 2026-05-06 02:13 | 39.62643 | -74.68437 | 32187 ft | 418 kts | 229° |
| 2026-05-06 02:13 | 39.60603 | -74.71119 | 32650 ft | 416 kts | 229° |
| 2026-05-06 02:13 | 39.58577 | -74.73786 | 33120 ft | 415 kts | 229° |
| 2026-05-06 02:13 | 39.56550 | -74.76452 | 33573 ft | 414 kts | 230° |
| 2026-05-06 02:14 | 39.54531 | -74.79106 | 34020 ft | 413 kts | 230° |
| 2026-05-06 02:14 | 39.52511 | -74.81761 | 34401 ft | 413 kts | 230° |
| 2026-05-06 02:14 | 39.50492 | -74.84411 | 34739 ft | 413 kts | 230° |
| 2026-05-06 02:14 | 39.48476 | -74.87058 | 35066 ft | 413 kts | 231° |
| 2026-05-06 02:15 | 39.46463 | -74.89702 | 35344 ft | 413 kts | 231° |
| 2026-05-06 02:15 | 39.44439 | -74.92355 | 35634 ft | 414 kts | 231° |
| 2026-05-06 02:15 | 39.42411 | -74.95011 | 35936 ft | 414 kts | 231° |
| 2026-05-06 02:15 | 39.40385 | -74.97658 | 36239 ft | 415 kts | 231° |
| 2026-05-06 02:16 | 39.38354 | -75.00306 | 36535 ft | 415 kts | 232° |
| 2026-05-06 02:16 | 39.36314 | -75.02963 | 36836 ft | 415 kts | 232° |
| 2026-05-06 02:16 | 39.34305 | -75.05575 | 37119 ft | 415 kts | 232° |
| 2026-05-06 02:16 | 39.32268 | -75.08225 | 37423 ft | 415 kts | 233° |
| 2026-05-06 02:17 | 39.30239 | -75.10865 | 37744 ft | 414 kts | 233° |
| 2026-05-06 02:17 | 39.28170 | -75.13469 | 37928 ft | 417 kts | 231° |
| 2026-05-06 02:17 | 39.23860 | -75.18531 | 37977 ft | 420 kts | 230° |
| 2026-05-06 02:18 | 39.19477 | -75.23526 | 37949 ft | 420 kts | 230° |
| 2026-05-06 02:18 | 39.15112 | -75.28556 | 37944 ft | 420 kts | 230° |
| 2026-05-06 02:19 | 39.10785 | -75.33604 | 37938 ft | 420 kts | 231° |
| 2026-05-06 02:19 | 39.06478 | -75.38629 | 37947 ft | 421 kts | 230° |
| 2026-05-06 02:20 | 39.01578 | -75.42962 | 37947 ft | 440 kts | 213° |
| 2026-05-06 02:20 | 38.98665 | -75.44307 | 37948 ft | 452 kts | 202° |
| 2026-05-06 02:21 | 38.92323 | -75.45426 | 37948 ft | 463 kts | 194° |
| 2026-05-06 02:21 | 38.85910 | -75.46305 | 37996 ft | 464 kts | 194° |
| 2026-05-06 02:22 | 38.79491 | -75.47189 | 37995 ft | 464 kts | 194° |
| 2026-05-06 02:22 | 38.73065 | -75.48070 | 37998 ft | 464 kts | 194° |
| 2026-05-06 02:23 | 38.66641 | -75.48952 | 37970 ft | 464 kts | 194° |
| 2026-05-06 02:23 | 38.60257 | -75.49815 | 38005 ft | 465 kts | 194° |
| 2026-05-06 02:24 | 38.53821 | -75.50685 | 38012 ft | 465 kts | 194° |
| 2026-05-06 02:24 | 38.47384 | -75.51561 | 38022 ft | 465 kts | 194° |
| 2026-05-06 02:25 | 38.40948 | -75.52435 | 38030 ft | 466 kts | 194° |
| 2026-05-06 02:25 | 38.34665 | -75.53965 | 38027 ft | 451 kts | 208° |
| 2026-05-06 02:26 | 38.29194 | -75.57464 | 38027 ft | 432 kts | 224° |
| 2026-05-06 02:26 | 38.24238 | -75.61818 | 38024 ft | 433 kts | 223° |
| 2026-05-06 02:27 | 38.19298 | -75.66123 | 38021 ft | 434 kts | 223° |
| 2026-05-06 02:27 | 38.14321 | -75.70445 | 38023 ft | 434 kts | 223° |
| 2026-05-06 02:28 | 38.09329 | -75.74765 | 38024 ft | 434 kts | 223° |
| 2026-05-06 02:28 | 38.04342 | -75.79085 | 38015 ft | 434 kts | 223° |
| 2026-05-06 02:29 | 38.00197 | -75.82671 | 38025 ft | 434 kts | 224° |
| 2026-05-06 02:29 | 37.95205 | -75.86984 | 38034 ft | 434 kts | 223° |
| 2026-05-06 02:30 | 37.90203 | -75.91283 | 38033 ft | 434 kts | 223° |
| 2026-05-06 02:30 | 37.85207 | -75.95587 | 38025 ft | 435 kts | 223° |
| 2026-05-06 02:31 | 37.80206 | -75.99885 | 38011 ft | 435 kts | 224° |
| 2026-05-06 02:31 | 37.75195 | -76.04187 | 38028 ft | 436 kts | 223° |
| 2026-05-06 02:32 | 37.70175 | -76.08484 | 38031 ft | 436 kts | 223° |
| 2026-05-06 02:32 | 37.65149 | -76.12774 | 38020 ft | 436 kts | 223° |
| 2026-05-06 02:33 | 37.60022 | -76.16910 | 38027 ft | 444 kts | 216° |
| 2026-05-06 02:33 | 37.58151 | -76.17995 | 38028 ft | 449 kts | 213° |
| 2026-05-06 02:34 | 37.48561 | -76.23170 | 38029 ft | 449 kts | 213° |
| 2026-05-06 02:34 | 37.42813 | -76.26264 | 38028 ft | 449 kts | 213° |
| 2026-05-06 02:35 | 37.37078 | -76.29365 | 38022 ft | 449 kts | 213° |
| 2026-05-06 02:35 | 37.31322 | -76.32471 | 38037 ft | 450 kts | 213° |
| 2026-05-06 02:36 | 37.25599 | -76.35546 | 38044 ft | 451 kts | 213° |
| 2026-05-06 02:36 | 37.19833 | -76.38639 | 38044 ft | 451 kts | 213° |
| 2026-05-06 02:37 | 37.14066 | -76.41739 | 38045 ft | 451 kts | 213° |
| 2026-05-06 02:37 | 37.08285 | -76.44836 | 38045 ft | 452 kts | 213° |
| 2026-05-06 02:38 | 37.02489 | -76.47930 | 38043 ft | 452 kts | 213° |
| 2026-05-06 02:38 | 36.96696 | -76.51024 | 38046 ft | 452 kts | 213° |
| 2026-05-06 02:39 | 36.90906 | -76.54101 | 38077 ft | 453 kts | 213° |
| 2026-05-06 02:39 | 36.85105 | -76.57187 | 38084 ft | 453 kts | 213° |
| 2026-05-06 02:40 | 36.79342 | -76.60258 | 38087 ft | 453 kts | 213° |
| 2026-05-06 02:40 | 36.73536 | -76.63341 | 38085 ft | 453 kts | 213° |
| 2026-05-06 02:41 | 36.67723 | -76.66407 | 38091 ft | 455 kts | 213° |
| 2026-05-06 02:41 | 36.61893 | -76.69478 | 38089 ft | 455 kts | 213° |
| 2026-05-06 02:42 | 36.56066 | -76.72554 | 38060 ft | 455 kts | 213° |
| 2026-05-06 02:42 | 36.50233 | -76.75635 | 38062 ft | 455 kts | 213° |
| 2026-05-06 02:43 | 36.44426 | -76.78687 | 38061 ft | 457 kts | 213° |
| 2026-05-06 02:43 | 36.38564 | -76.81768 | 38064 ft | 458 kts | 213° |
| 2026-05-06 02:44 | 36.32698 | -76.84836 | 38065 ft | 458 kts | 213° |
| 2026-05-06 02:44 | 36.26829 | -76.87905 | 38079 ft | 457 kts | 213° |
| 2026-05-06 02:45 | 36.20966 | -76.90967 | 38082 ft | 457 kts | 213° |
| 2026-05-06 02:45 | 36.15098 | -76.94026 | 38080 ft | 457 kts | 213° |
| 2026-05-06 02:46 | 36.09238 | -76.97080 | 38079 ft | 457 kts | 213° |
| 2026-05-06 02:46 | 36.03404 | -77.00116 | 38064 ft | 457 kts | 213° |
| 2026-05-06 02:47 | 35.97526 | -77.03167 | 38100 ft | 459 kts | 213° |
| 2026-05-06 02:47 | 35.91782 | -77.06474 | 38108 ft | 447 kts | 223° |
| 2026-05-06 02:47 | 35.89281 | -77.08651 | 38110 ft | 435 kts | 230° |
| 2026-05-06 02:48 | 35.86916 | -77.10995 | 38109 ft | 436 kts | 230° |
| 2026-05-06 02:48 | 35.82216 | -77.15650 | 38094 ft | 436 kts | 230° |
| 2026-05-06 02:49 | 35.77475 | -77.20311 | 38096 ft | 437 kts | 229° |
| 2026-05-06 02:49 | 35.72713 | -77.24982 | 38097 ft | 436 kts | 229° |
| 2026-05-06 02:50 | 35.67979 | -77.29629 | 38098 ft | 435 kts | 229° |
| 2026-05-06 02:50 | 35.63234 | -77.34274 | 38100 ft | 435 kts | 229° |
| 2026-05-06 02:51 | 35.58492 | -77.38901 | 38091 ft | 435 kts | 229° |
| 2026-05-06 02:51 | 35.53745 | -77.43529 | 38097 ft | 436 kts | 229° |
| 2026-05-06 02:52 | 35.48983 | -77.48157 | 38090 ft | 437 kts | 229° |
| 2026-05-06 02:52 | 35.44254 | -77.52753 | 38125 ft | 437 kts | 229° |
| 2026-05-06 02:53 | 35.39493 | -77.57381 | 38110 ft | 436 kts | 229° |
| 2026-05-06 02:53 | 35.34729 | -77.61998 | 38118 ft | 436 kts | 229° |
| 2026-05-06 02:54 | 35.29976 | -77.66587 | 38117 ft | 435 kts | 229° |
| 2026-05-06 02:54 | 35.25223 | -77.71168 | 38109 ft | 434 kts | 229° |
| 2026-05-06 02:55 | 35.20486 | -77.75745 | 38117 ft | 434 kts | 229° |
| 2026-05-06 02:55 | 35.15743 | -77.80325 | 38108 ft | 434 kts | 229° |
| 2026-05-06 02:56 | 35.10995 | -77.84900 | 38130 ft | 435 kts | 229° |
| 2026-05-06 02:56 | 35.06232 | -77.89470 | 38130 ft | 436 kts | 229° |
| 2026-05-06 02:57 | 35.01464 | -77.94027 | 38125 ft | 435 kts | 229° |
| 2026-05-06 02:57 | 34.96736 | -77.98557 | 38129 ft | 434 kts | 229° |
| 2026-05-06 02:58 | 34.91997 | -78.03095 | 38125 ft | 433 kts | 229° |
| 2026-05-06 02:58 | 34.87251 | -78.07632 | 38121 ft | 434 kts | 229° |
| 2026-05-06 02:59 | 34.82522 | -78.12130 | 38114 ft | 423 kts | 229° |
| 2026-05-06 02:59 | 34.80239 | -78.14290 | 38119 ft | 410 kts | 229° |
| 2026-05-06 02:59 | 34.78014 | -78.16399 | 38117 ft | 401 kts | 229° |
| 2026-05-06 03:00 | 34.73649 | -78.20587 | 38117 ft | 399 kts | 230° |
| 2026-05-06 03:00 | 34.69297 | -78.24772 | 38116 ft | 399 kts | 230° |
| 2026-05-06 03:01 | 34.64933 | -78.28940 | 38113 ft | 400 kts | 229° |
| 2026-05-06 03:01 | 34.60556 | -78.33102 | 38112 ft | 400 kts | 229° |
| 2026-05-06 03:01 | 34.58362 | -78.35185 | 37950 ft | 402 kts | 229° |
| 2026-05-06 03:02 | 34.56179 | -78.37258 | 37347 ft | 404 kts | 229° |
| 2026-05-06 03:02 | 34.53951 | -78.39378 | 36845 ft | 409 kts | 229° |
| 2026-05-06 03:02 | 34.51720 | -78.41496 | 36410 ft | 407 kts | 229° |
| 2026-05-06 03:02 | 34.49490 | -78.43603 | 36014 ft | 404 kts | 229° |
| 2026-05-06 03:03 | 34.47277 | -78.45691 | 35599 ft | 403 kts | 229° |
| 2026-05-06 03:03 | 34.45072 | -78.47773 | 35183 ft | 401 kts | 229° |
| 2026-05-06 03:03 | 34.42878 | -78.49847 | 34752 ft | 400 kts | 229° |
| 2026-05-06 03:03 | 34.40687 | -78.51919 | 34337 ft | 399 kts | 229° |
| 2026-05-06 03:04 | 34.38499 | -78.53991 | 33877 ft | 399 kts | 229° |
| 2026-05-06 03:04 | 34.36316 | -78.56055 | 33438 ft | 398 kts | 228° |
| 2026-05-06 03:04 | 34.34139 | -78.58109 | 33009 ft | 396 kts | 228° |
| 2026-05-06 03:04 | 34.32066 | -78.60247 | 32583 ft | 386 kts | 234° |
| 2026-05-06 03:05 | 34.30172 | -78.62532 | 32172 ft | 384 kts | 234° |
| 2026-05-06 03:05 | 34.28284 | -78.64803 | 31760 ft | 382 kts | 234° |
| 2026-05-06 03:05 | 34.26403 | -78.67059 | 31356 ft | 380 kts | 233° |
| 2026-05-06 03:05 | 34.24530 | -78.69304 | 30945 ft | 378 kts | 233° |
| 2026-05-06 03:06 | 34.22666 | -78.71535 | 30564 ft | 376 kts | 233° |
| 2026-05-06 03:06 | 34.20835 | -78.73728 | 30153 ft | 374 kts | 232° |
| 2026-05-06 03:06 | 34.18994 | -78.75934 | 29724 ft | 371 kts | 232° |
| 2026-05-06 03:06 | 34.17166 | -78.78123 | 29346 ft | 368 kts | 232° |
| 2026-05-06 03:07 | 34.15354 | -78.80291 | 28990 ft | 364 kts | 232° |
| 2026-05-06 03:07 | 34.13561 | -78.82435 | 28635 ft | 361 kts | 232° |
| 2026-05-06 03:07 | 34.11787 | -78.84551 | 28282 ft | 357 kts | 232° |
| 2026-05-06 03:07 | 34.10024 | -78.86650 | 27938 ft | 353 kts | 232° |
| 2026-05-06 03:08 | 34.08288 | -78.88722 | 27585 ft | 350 kts | 231° |
| 2026-05-06 03:08 | 34.06566 | -78.90779 | 27234 ft | 347 kts | 231° |
| 2026-05-06 03:08 | 34.04859 | -78.92816 | 26890 ft | 343 kts | 231° |
| 2026-05-06 03:08 | 34.03171 | -78.94833 | 26535 ft | 341 kts | 231° |
| 2026-05-06 03:09 | 34.01492 | -78.96834 | 26185 ft | 338 kts | 231° |
| 2026-05-06 03:09 | 33.99823 | -78.98818 | 25820 ft | 336 kts | 231° |
| 2026-05-06 03:09 | 33.98158 | -79.00796 | 25445 ft | 335 kts | 231° |
| 2026-05-06 03:09 | 33.96522 | -79.02738 | 25096 ft | 333 kts | 230° |
| 2026-05-06 03:10 | 33.94876 | -79.04693 | 24724 ft | 332 kts | 230° |
| 2026-05-06 03:10 | 33.93235 | -79.06644 | 24346 ft | 331 kts | 230° |
| 2026-05-06 03:10 | 33.91594 | -79.08593 | 23962 ft | 331 kts | 230° |
| 2026-05-06 03:10 | 33.89957 | -79.10538 | 23572 ft | 330 kts | 230° |
| 2026-05-06 03:11 | 33.88323 | -79.12476 | 23160 ft | 329 kts | 230° |
| 2026-05-06 03:11 | 33.86698 | -79.14400 | 22782 ft | 327 kts | 230° |
| 2026-05-06 03:11 | 33.85083 | -79.16310 | 22405 ft | 325 kts | 229° |
| 2026-05-06 03:11 | 33.83472 | -79.18209 | 22032 ft | 323 kts | 229° |
| 2026-05-06 03:12 | 33.81869 | -79.20099 | 21652 ft | 322 kts | 229° |
| 2026-05-06 03:12 | 33.80271 | -79.21986 | 21276 ft | 321 kts | 229° |
| 2026-05-06 03:12 | 33.78636 | -79.23814 | 20894 ft | 323 kts | 221° |
| 2026-05-06 03:12 | 33.76747 | -79.25311 | 20505 ft | 326 kts | 217° |
| 2026-05-06 03:13 | 33.74830 | -79.26758 | 20104 ft | 326 kts | 216° |
| 2026-05-06 03:13 | 33.72910 | -79.28209 | 19709 ft | 326 kts | 216° |
| 2026-05-06 03:13 | 33.71014 | -79.29639 | 19325 ft | 326 kts | 216° |
| 2026-05-06 03:13 | 33.69088 | -79.31088 | 18934 ft | 327 kts | 216° |
| 2026-05-06 03:14 | 33.67158 | -79.32538 | 18541 ft | 328 kts | 216° |
| 2026-05-06 03:14 | 33.65225 | -79.33993 | 18109 ft | 328 kts | 215° |
| 2026-05-06 03:14 | 33.63290 | -79.35455 | 17706 ft | 328 kts | 216° |
| 2026-05-06 03:14 | 33.61364 | -79.36911 | 17324 ft | 326 kts | 216° |
| 2026-05-06 03:15 | 33.59437 | -79.38366 | 16838 ft | 328 kts | 216° |
| 2026-05-06 03:15 | 33.57507 | -79.39819 | 16453 ft | 327 kts | 216° |
| 2026-05-06 03:15 | 33.55582 | -79.41266 | 16056 ft | 326 kts | 216° |
| 2026-05-06 03:15 | 33.53664 | -79.42707 | 15664 ft | 325 kts | 216° |
| 2026-05-06 03:16 | 33.51753 | -79.44145 | 15285 ft | 324 kts | 216° |
| 2026-05-06 03:16 | 33.49848 | -79.45577 | 14882 ft | 323 kts | 216° |
| 2026-05-06 03:16 | 33.47946 | -79.47008 | 14522 ft | 322 kts | 216° |
| 2026-05-06 03:16 | 33.46054 | -79.48431 | 14146 ft | 321 kts | 216° |
| 2026-05-06 03:17 | 33.44165 | -79.49854 | 13756 ft | 321 kts | 216° |
| 2026-05-06 03:17 | 33.42279 | -79.51274 | 13357 ft | 319 kts | 216° |
| 2026-05-06 03:17 | 33.40405 | -79.52684 | 12981 ft | 317 kts | 216° |
| 2026-05-06 03:17 | 33.38540 | -79.54084 | 12601 ft | 316 kts | 216° |
| 2026-05-06 03:18 | 33.36709 | -79.55456 | 12217 ft | 314 kts | 215° |
| 2026-05-06 03:18 | 33.34837 | -79.56855 | 11849 ft | 313 kts | 215° |
| 2026-05-06 03:18 | 33.33022 | -79.58214 | 11481 ft | 311 kts | 215° |
| 2026-05-06 03:18 | 33.31197 | -79.59594 | 11108 ft | 310 kts | 215° |
| 2026-05-06 03:19 | 33.29380 | -79.60975 | 10737 ft | 309 kts | 215° |
| 2026-05-06 03:19 | 33.27570 | -79.62353 | 10362 ft | 308 kts | 215° |
| 2026-05-06 03:19 | 33.25765 | -79.63724 | 9989 ft | 307 kts | 214° |
| 2026-05-06 03:19 | 33.23961 | -79.65094 | 9584 ft | 306 kts | 214° |
| 2026-05-06 03:20 | 33.20722 | -79.68249 | 8839 ft | 298 kts | 236° |
| 2026-05-06 03:20 | 33.19699 | -79.70367 | 8474 ft | 294 kts | 245° |
| 2026-05-06 03:20 | 33.18782 | -79.72539 | 8119 ft | 292 kts | 244° |
| 2026-05-06 03:21 | 33.17866 | -79.74686 | 7765 ft | 290 kts | 244° |
| 2026-05-06 03:21 | 33.16952 | -79.76823 | 7399 ft | 288 kts | 244° |
| 2026-05-06 03:21 | 33.16044 | -79.78945 | 7051 ft | 286 kts | 244° |
| 2026-05-06 03:21 | 33.15140 | -79.81058 | 6702 ft | 285 kts | 244° |
| 2026-05-06 03:22 | 33.14260 | -79.83139 | 6351 ft | 283 kts | 246° |
| 2026-05-06 03:22 | 33.13782 | -79.85383 | 5967 ft | 280 kts | 266° |
| 2026-05-06 03:22 | 33.13547 | -79.87675 | 5595 ft | 278 kts | 257° |
| 2026-05-06 03:22 | 33.13050 | -79.89904 | 5240 ft | 277 kts | 255° |
| 2026-05-06 03:23 | 33.12532 | -79.92070 | 5108 ft | 267 kts | 255° |
| 2026-05-06 03:23 | 33.12031 | -79.94158 | 4985 ft | 257 kts | 255° |
| 2026-05-06 03:23 | 33.11547 | -79.96173 | 4861 ft | 249 kts | 255° |
| 2026-05-06 03:23 | 33.11079 | -79.98122 | 4738 ft | 240 kts | 255° |
| 2026-05-06 03:24 | 33.10780 | -79.99376 | 4650 ft | 234 kts | 255° |
| 2026-05-06 03:24 | 33.10345 | -80.01234 | 4407 ft | 231 kts | 254° |
| 2026-05-06 03:24 | 33.09926 | -80.03063 | 4182 ft | 226 kts | 254° |
| 2026-05-06 03:24 | 33.09528 | -80.04853 | 3957 ft | 221 kts | 254° |
| 2026-05-06 03:25 | 33.09149 | -80.06611 | 3733 ft | 217 kts | 254° |
| 2026-05-06 03:25 | 33.08790 | -80.08336 | 3512 ft | 212 kts | 254° |
| 2026-05-06 03:25 | 33.08403 | -80.10014 | 3289 ft | 207 kts | 244° |
| 2026-05-06 03:25 | 33.07710 | -80.11486 | 3045 ft | 202 kts | 234° |
| 2026-05-06 03:26 | 33.06783 | -80.12713 | 2793 ft | 197 kts | 215° |
| 2026-05-06 03:26 | 33.05606 | -80.13482 | 2603 ft | 190 kts | 197° |
| 2026-05-06 03:26 | 33.04363 | -80.13749 | 2543 ft | 174 kts | 181° |
| 2026-05-06 03:26 | 33.03221 | -80.13585 | 2506 ft | 157 kts | 166° |
| 2026-05-06 03:27 | 33.02260 | -80.13121 | 2488 ft | 143 kts | 154° |
| 2026-05-06 03:27 | 33.01436 | -80.12506 | 2357 ft | 137 kts | 151° |
| 2026-05-06 03:27 | 33.00642 | -80.11902 | 2200 ft | 134 kts | 151° |
| 2026-05-06 03:27 | 32.99864 | -80.11311 | 2038 ft | 132 kts | 151° |
| 2026-05-06 03:28 | 32.99094 | -80.10726 | 1865 ft | 131 kts | 151° |
| 2026-05-06 03:28 | 32.98326 | -80.10144 | 1692 ft | 131 kts | 151° |
| 2026-05-06 03:28 | 32.97570 | -80.09569 | 1519 ft | 131 kts | 151° |
| 2026-05-06 03:28 | 32.96803 | -80.08987 | 1348 ft | 130 kts | 151° |
| 2026-05-06 03:29 | 32.96038 | -80.08406 | 1173 ft | 131 kts | 150° |
| 2026-05-06 03:29 | 32.95272 | -80.07825 | 1007 ft | 130 kts | 150° |
| 2026-05-06 03:29 | 32.94503 | -80.07241 | 831 ft | 132 kts | 149° |
| 2026-05-06 03:29 | 32.93731 | -80.06656 | 676 ft | 130 kts | 148° |
| 2026-05-06 03:30 | 32.92965 | -80.06075 | 491 ft | 130 kts | 148° |
| 2026-05-06 03:30 | 32.92199 | -80.05495 | 307 ft | 131 kts | 148° |
| 2026-05-06 03:30 | 32.91432 | -80.04914 | 143 ft | 130 kts | 147° |
| 2026-05-06 03:30 | 32.90686 | -80.04346 | 43 ft | 118 kts | 147° |
| 2026-05-06 03:31 | 32.90084 | -80.03893 | 42 ft | 75 kts | 148° |
| 2026-05-06 03:31 | 32.89893 | -80.03750 | 39 ft | 1 kts | 148° |
| 2026-05-06 03:31 | 32.89816 | -80.03692 | 39 ft | 19 kts | 148° |
| 2026-05-06 03:31 | 32.89676 | -80.03596 | 38 ft | 25 kts | 161° |
| 2026-05-06 03:32 | 32.89498 | -80.03584 | 40 ft | 26 kts | 182° |
| 2026-05-06 03:32 | 32.89317 | -80.03590 | 41 ft | 27 kts | 181° |
| 2026-05-06 03:32 | 32.88474 | -80.03542 | 41 ft | 0 kts | 348° |